Time;durP1;ratioP1;P1;durP2;ratioP2;P2;SDS_P1;SDS_P2;PMS_P1;PMS_P2;Temp;Humidity;BMP_temperature;BMP_pressure;BME280_temperature;BME280_humidity;BME280_pressure;Samples;Min_cycle;Max_cycle;Signal;HPM_P1;HPM_P2
2021/10/26 00:01:44;;;;;;;6.67;5.50;;;;;;;;;;4960672;28;20196;-64
2021/10/26 00:04:24;;;;;;;5.80;5.23;;;;;;;;;;4982985;28;20209;-64
2021/10/26 00:06:51;;;;;;;6.63;6.00;;;;;;;;;;4968214;28;20194;-64
2021/10/26 00:09:17;;;;;;;7.00;5.90;;;;;;;;;;4991817;28;20172;-64
2021/10/26 00:11:43;;;;;;;7.00;5.77;;;;;;;;;;4972945;28;20353;-64
2021/10/26 00:14:09;;;;;;;8.23;6.43;;;;;;;;;;4981109;28;20665;-64
2021/10/26 00:16:35;;;;;;;6.13;5.03;;;;;;;;;;4972227;28;20187;-64
2021/10/26 00:19:01;;;;;;;6.90;6.20;;;;;;;;;;4993260;28;20637;-64
2021/10/26 00:21:27;;;;;;;6.47;5.60;;;;;;;;;;4995215;28;20203;-64
2021/10/26 00:23:53;;;;;;;6.33;5.73;;;;;;;;;;4975591;28;20673;-64
2021/10/26 00:26:19;;;;;;;6.93;5.97;;;;;;;;;;4985982;28;20612;-65
2021/10/26 00:28:45;;;;;;;6.13;5.63;;;;;;;;;;4990782;28;20179;-64
2021/10/26 00:31:11;;;;;;;6.97;5.87;;;;;;;;;;4984816;28;20222;-64
2021/10/26 00:33:40;;;;;;;6.77;5.57;;;;;;;;;;4984777;28;20189;-63
2021/10/26 00:36:06;;;;;;;5.37;4.87;;;;;;;;;;4966030;28;20268;-65
2021/10/26 00:38:33;;;;;;;5.73;5.23;;;;;;;;;;4971470;28;20192;-64
2021/10/26 00:40:59;;;;;;;6.17;5.50;;;;;;;;;;4960261;28;20275;-64
2021/10/26 00:43:26;;;;;;;6.77;5.67;;;;;;;;;;4966773;28;20231;-64
2021/10/26 00:45:53;;;;;;;6.33;5.57;;;;;;;;;;4963213;28;20263;-64
2021/10/26 00:48:19;;;;;;;8.27;5.63;;;;;;;;;;4940052;28;20183;-64
2021/10/26 00:51:12;;;;;;;6.63;5.80;;;;;;;;;;4967435;28;20190;-64
2021/10/26 00:53:38;;;;;;;6.67;5.27;;;;;;;;;;4961323;28;20258;-65
2021/10/26 00:56:07;;;;;;;5.83;5.23;;;;;;;;;;4968280;28;20179;-64
2021/10/26 00:58:33;;;;;;;6.93;6.23;;;;;;;;;;4968906;28;20294;-64
2021/10/26 01:00:59;;;;;;;6.00;5.23;;;;;;;;;;4949663;28;20211;-65
2021/10/26 01:03:25;;;;;;;5.90;5.30;;;;;;;;;;4951338;28;20217;-64
2021/10/26 01:05:51;;;;;;;6.90;5.97;;;;;;;;;;4947731;28;20921;-63
2021/10/26 01:08:17;;;;;;;6.87;5.37;;;;;;;;;;4961543;28;20462;-64
2021/10/26 01:10:43;;;;;;;6.43;5.57;;;;;;;;;;4948016;28;20189;-64
2021/10/26 01:13:10;;;;;;;7.07;5.80;;;;;;;;;;4951764;28;20183;-64
2021/10/26 01:15:36;;;;;;;8.47;5.60;;;;;;;;;;4967274;28;20327;-65
2021/10/26 01:18:02;;;;;;;6.10;5.50;;;;;;;;;;4959095;28;20195;-64
2021/10/26 01:20:28;;;;;;;7.27;5.77;;;;;;;;;;4944449;28;20208;-64
2021/10/26 01:22:54;;;;;;;7.60;5.73;;;;;;;;;;4969306;28;20646;-64
2021/10/26 01:25:20;;;;;;;8.10;5.33;;;;;;;;;;4967864;28;20188;-64
2021/10/26 01:27:48;;;;;;;6.57;5.53;;;;;;;;;;4969013;28;20187;-64
2021/10/26 01:30:16;;;;;;;7.73;7.10;;;;;;;;;;4956926;28;20207;-65
2021/10/26 01:32:42;;;;;;;5.67;5.17;;;;;;;;;;4941633;28;20270;-65
2021/10/26 01:35:09;;;;;;;6.70;5.63;;;;;;;;;;4958004;28;20286;-65
2021/10/26 01:37:35;;;;;;;6.83;6.13;;;;;;;;;;4985936;28;20175;-64
2021/10/26 01:40:02;;;;;;;6.23;5.50;;;;;;;;;;4968261;28;20596;-65
2021/10/26 01:42:28;;;;;;;7.13;6.20;;;;;;;;;;4973752;28;20253;-65
2021/10/26 01:44:56;;;;;;;5.93;5.33;;;;;;;;;;4970493;28;20210;-65
2021/10/26 01:47:22;;;;;;;6.27;5.67;;;;;;;;;;4966520;28;20183;-65
2021/10/26 01:49:50;;;;;;;6.93;5.17;;;;;;;;;;4996888;28;20250;-64
2021/10/26 01:52:19;;;;;;;8.20;5.20;;;;;;;;;;4985037;28;20357;-65
2021/10/26 01:54:46;;;;;;;5.63;5.13;;;;;;;;;;4969868;28;20281;-65
2021/10/26 01:57:16;;;;;;;6.50;5.20;;;;;;;;;;4959550;28;20187;-65
2021/10/26 01:59:43;;;;;;;5.97;5.23;;;;;;;;;;4983897;28;20713;-65
2021/10/26 02:02:09;;;;;;;5.63;5.07;;;;;;;;;;4967733;28;20513;-65
2021/10/26 02:04:35;;;;;;;5.00;4.47;;;;;;;;;;4961984;28;20172;-66
2021/10/26 02:07:01;;;;;;;5.80;5.20;;;;;;;;;;4986448;28;20171;-66
2021/10/26 02:09:27;;;;;;;5.47;4.97;;;;;;;;;;4982857;28;20183;-65
2021/10/26 02:11:53;;;;;;;6.47;5.60;;;;;;;;;;4975644;28;20222;-65
2021/10/26 02:14:19;;;;;;;7.07;5.10;;;;;;;;;;4969796;28;20250;-65
2021/10/26 02:16:46;;;;;;;5.67;5.00;;;;;;;;;;4988300;28;20187;-65
2021/10/26 02:19:12;;;;;;;6.33;5.17;;;;;;;;;;4970030;28;20191;-66
2021/10/26 02:21:38;;;;;;;5.20;4.70;;;;;;;;;;4970033;28;20213;-69
2021/10/26 02:24:04;;;;;;;5.80;5.17;;;;;;;;;;4958756;28;20182;-66
2021/10/26 02:26:30;;;;;;;5.90;5.40;;;;;;;;;;4963755;28;20266;-66
2021/10/26 02:28:57;;;;;;;5.40;4.90;;;;;;;;;;4956241;28;20183;-65
2021/10/26 02:31:23;;;;;;;5.20;4.70;;;;;;;;;;4984451;28;20435;-66
2021/10/26 02:33:49;;;;;;;5.60;5.03;;;;;;;;;;4961546;28;20796;-66
2021/10/26 02:36:15;;;;;;;6.60;4.97;;;;;;;;;;4965235;28;20247;-66
2021/10/26 02:38:41;;;;;;;5.40;4.90;;;;;;;;;;4983704;28;20615;-66
2021/10/26 02:41:07;;;;;;;6.47;5.30;;;;;;;;;;4986917;28;22386;-66
2021/10/26 02:43:33;;;;;;;5.63;5.13;;;;;;;;;;4967508;28;20202;-66
2021/10/26 02:46:02;;;;;;;7.40;5.40;;;;;;;;;;4967734;28;20365;-66
2021/10/26 02:48:29;;;;;;;6.13;5.50;;;;;;;;;;4986424;28;20806;-66
2021/10/26 02:50:56;;;;;;;6.00;5.50;;;;;;;;;;4965899;28;20665;-66
2021/10/26 02:53:23;;;;;;;5.97;5.37;;;;;;;;;;4959624;28;20183;-69
2021/10/26 02:55:50;;;;;;;5.80;5.20;;;;;;;;;;4985056;28;20203;-69
2021/10/26 02:58:16;;;;;;;6.20;5.23;;;;;;;;;;4981105;28;20287;-69
2021/10/26 03:00:43;;;;;;;7.00;5.73;;;;;;;;;;4994543;28;20194;-69
2021/10/26 03:03:09;;;;;;;6.97;5.67;;;;;;;;;;4986384;28;20179;-68
2021/10/26 03:05:35;;;;;;;6.67;6.07;;;;;;;;;;4983025;28;20262;-68
2021/10/26 03:08:01;;;;;;;6.80;6.07;;;;;;;;;;4984279;28;20230;-69
2021/10/26 03:10:27;;;;;;;6.27;5.67;;;;;;;;;;4980618;28;20653;-68
2021/10/26 03:12:53;;;;;;;7.13;5.37;;;;;;;;;;4986715;28;20171;-68
2021/10/26 03:15:20;;;;;;;6.80;5.60;;;;;;;;;;4966279;28;20179;-69
2021/10/26 03:17:46;;;;;;;6.83;6.13;;;;;;;;;;4987792;28;20179;-69
2021/10/26 03:20:12;;;;;;;6.53;5.70;;;;;;;;;;4991744;28;20592;-69
2021/10/26 03:22:38;;;;;;;6.10;5.50;;;;;;;;;;4982655;28;20167;-69
2021/10/26 03:25:05;;;;;;;6.43;5.83;;;;;;;;;;4999334;28;20175;-69
2021/10/26 03:27:39;;;;;;;5.97;5.00;;;;;;;;;;4990103;28;20244;-69
2021/10/26 03:30:06;;;;;;;7.20;6.10;;;;;;;;;;4989883;28;20199;-68
2021/10/26 03:32:32;;;;;;;6.33;5.60;;;;;;;;;;4972863;28;20171;-69
2021/10/26 03:34:58;;;;;;;7.73;5.97;;;;;;;;;;4986484;28;20223;-69
2021/10/26 03:37:24;;;;;;;7.60;6.10;;;;;;;;;;4986787;28;20187;-69
2021/10/26 03:39:55;;;;;;;7.60;6.53;;;;;;;;;;5001784;28;20186;-68
2021/10/26 03:42:26;;;;;;;8.77;6.37;;;;;;;;;;4985138;28;20271;-68
2021/10/26 03:44:53;;;;;;;6.40;5.80;;;;;;;;;;4970748;28;20180;-69
2021/10/26 03:47:20;;;;;;;7.27;5.97;;;;;;;;;;4993600;28;22403;-69
2021/10/26 03:49:47;;;;;;;7.13;6.07;;;;;;;;;;4972757;28;20186;-69
2021/10/26 03:52:13;;;;;;;7.40;6.30;;;;;;;;;;4985446;28;20245;-69
2021/10/26 03:54:41;;;;;;;9.30;5.80;;;;;;;;;;4964249;28;20520;-69
2021/10/26 03:57:10;;;;;;;6.90;6.13;;;;;;;;;;4987921;28;20199;-69
2021/10/26 03:59:36;;;;;;;6.97;5.87;;;;;;;;;;4973036;28;20250;-70
2021/10/26 04:02:20;;;;;;;5.97;5.40;;;;;;;;;;4962016;28;20299;-69
2021/10/26 04:04:46;;;;;;;5.90;5.30;;;;;;;;;;4982624;28;20170;-69
2021/10/26 04:07:20;;;;;;;7.40;6.57;;;;;;;;;;4988669;28;20581;-70
2021/10/26 04:09:52;;;;;;;6.97;6.27;;;;;;;;;;4998477;28;20228;-69
2021/10/26 04:12:27;;;;;;;6.33;5.47;;;;;;;;;;4967872;28;20258;-67
2021/10/26 04:14:55;;;;;;;6.83;6.13;;;;;;;;;;4973435;28;20190;-69
2021/10/26 04:17:25;;;;;;;6.10;5.50;;;;;;;;;;4969051;28;20197;-68
2021/10/26 04:19:54;;;;;;;6.80;5.93;;;;;;;;;;4972843;28;20273;-68
2021/10/26 04:22:21;;;;;;;6.87;5.43;;;;;;;;;;4979433;28;20215;-68
2021/10/26 04:24:48;;;;;;;6.77;5.90;;;;;;;;;;4961397;28;20280;-68
2021/10/26 04:27:14;;;;;;;7.83;6.63;;;;;;;;;;4978267;28;20183;-68
2021/10/26 04:29:41;;;;;;;6.97;6.27;;;;;;;;;;4975210;28;20466;-64
2021/10/26 04:32:09;;;;;;;6.50;5.80;;;;;;;;;;4967640;28;20262;-64
2021/10/26 04:34:35;;;;;;;8.37;5.77;;;;;;;;;;4994069;28;20298;-64
2021/10/26 04:37:11;;;;;;;7.70;5.77;;;;;;;;;;4963462;28;20180;-64
2021/10/26 04:39:38;;;;;;;7.07;6.33;;;;;;;;;;4980638;28;20258;-64
2021/10/26 04:42:07;;;;;;;6.47;5.87;;;;;;;;;;4971814;28;20196;-64
2021/10/26 04:44:33;;;;;;;8.17;6.43;;;;;;;;;;4989109;28;20186;-65
2021/10/26 04:46:59;;;;;;;8.17;6.97;;;;;;;;;;4970658;28;20210;-66
2021/10/26 04:49:33;;;;;;;6.57;5.83;;;;;;;;;;4997613;28;20205;-64
2021/10/26 04:52:07;;;;;;;9.07;7.37;;;;;;;;;;4971630;28;20680;-64
2021/10/26 04:54:33;;;;;;;6.93;6.23;;;;;;;;;;4990205;28;20634;-66
2021/10/26 04:56:59;;;;;;;7.73;6.60;;;;;;;;;;4962176;28;20215;-63
2021/10/26 04:59:29;;;;;;;8.93;6.87;;;;;;;;;;4963578;28;20666;-66
2021/10/26 05:02:02;;;;;;;8.43;7.13;;;;;;;;;;4986380;28;20198;-63
2021/10/26 05:04:28;;;;;;;8.87;6.80;;;;;;;;;;4964898;28;20179;-66
2021/10/26 05:06:55;;;;;;;7.50;6.80;;;;;;;;;;4989828;28;20194;-63
2021/10/26 05:09:21;;;;;;;7.57;6.80;;;;;;;;;;4993068;28;20187;-63
2021/10/26 05:11:53;;;;;;;9.17;6.80;;;;;;;;;;4984291;28;20175;-63
2021/10/26 05:14:19;;;;;;;9.90;6.80;;;;;;;;;;4995019;28;20183;-63
2021/10/26 05:16:51;;;;;;;7.30;6.53;;;;;;;;;;4987965;28;20198;-64
2021/10/26 05:19:20;;;;;;;6.57;5.83;;;;;;;;;;4967119;28;20277;-64
2021/10/26 05:21:49;;;;;;;10.70;7.33;;;;;;;;;;4971380;28;20381;-64
2021/10/26 05:24:24;;;;;;;8.57;7.03;;;;;;;;;;4985139;28;20191;-64
2021/10/26 05:26:51;;;;;;;8.80;6.70;;;;;;;;;;4988450;28;20231;-65
2021/10/26 05:29:46;;;;;;;7.07;6.37;;;;;;;;;;4986342;28;20175;-64
2021/10/26 05:32:13;;;;;;;8.30;6.17;;;;;;;;;;4978697;28;20602;-65
2021/10/26 05:34:42;;;;;;;7.87;6.93;;;;;;;;;;4981663;28;20233;-65
2021/10/26 05:37:11;;;;;;;9.50;7.90;;;;;;;;;;4947800;28;20196;-65
2021/10/26 05:39:49;;;;;;;8.00;7.20;;;;;;;;;;4947614;28;20254;-64
2021/10/26 05:42:19;;;;;;;9.73;6.83;;;;;;;;;;4947089;28;20204;-66
2021/10/26 05:44:58;;;;;;;;;;;;;;;;;;;;;
2021/10/26 05:47:44;;;;;;;;;;;;;;;;;;;;;
2021/10/26 05:50:29;;;;;;;10.03;7.60;;;;;;;;;;4972465;28;20194;-64
2021/10/26 05:53:01;;;;;;;10.03;8.00;;;;;;;;;;4943004;28;20776;-65
2021/10/26 05:55:39;;;;;;;10.80;7.60;;;;;;;;;;4943913;28;20194;-65
2021/10/26 05:58:12;;;;;;;8.90;7.93;;;;;;;;;;4962402;28;20266;-65
2021/10/26 06:00:42;;;;;;;10.80;8.20;;;;;;;;;;4950943;28;20424;-65
2021/10/26 06:03:08;;;;;;;10.80;8.47;;;;;;;;;;4965132;28;20176;-65
2021/10/26 06:05:34;;;;;;;10.37;7.53;;;;;;;;;;4982224;28;20179;-65
2021/10/26 06:08:00;;;;;;;14.00;9.07;;;;;;;;;;4941657;28;20569;-65
2021/10/26 06:10:31;;;;;;;14.07;8.23;;;;;;;;;;4968266;28;20793;-64
2021/10/26 06:13:10;;;;;;;16.17;9.63;;;;;;;;;;4947644;28;20195;-65
2021/10/26 06:15:37;;;;;;;9.30;8.33;;;;;;;;;;4951371;28;20187;-65
2021/10/26 06:18:03;;;;;;;9.63;8.07;;;;;;;;;;4964869;28;20647;-64
2021/10/26 06:20:33;;;;;;;10.10;7.70;;;;;;;;;;4956390;28;20195;-64
2021/10/26 06:23:00;;;;;;;9.83;7.83;;;;;;;;;;4969593;28;20172;-64
2021/10/26 06:25:26;;;;;;;10.33;8.53;;;;;;;;;;4947683;28;20177;-65
2021/10/26 06:27:53;;;;;;;9.63;7.77;;;;;;;;;;4965494;28;20282;-65
2021/10/26 06:30:19;;;;;;;9.27;7.87;;;;;;;;;;4945871;28;20230;-64
2021/10/26 06:32:45;;;;;;;10.10;8.23;;;;;;;;;;4953279;28;20215;-65
2021/10/26 06:35:12;;;;;;;13.83;8.33;;;;;;;;;;4970758;28;20280;-66
2021/10/26 06:37:43;;;;;;;10.37;8.70;;;;;;;;;;4961803;28;20179;-63
2021/10/26 06:40:11;;;;;;;11.63;8.27;;;;;;;;;;4941183;28;20202;-63
2021/10/26 06:42:37;;;;;;;10.20;8.47;;;;;;;;;;4965384;28;20266;-64
2021/10/26 06:45:03;;;;;;;10.83;8.43;;;;;;;;;;4976341;28;20182;-63
2021/10/26 06:47:30;;;;;;;11.97;9.27;;;;;;;;;;4976256;28;20172;-63
2021/10/26 06:49:59;;;;;;;11.10;9.00;;;;;;;;;;4945947;28;20292;-65
2021/10/26 06:52:25;;;;;;;14.87;10.10;;;;;;;;;;4957819;28;20176;-66
2021/10/26 06:54:52;;;;;;;13.47;8.63;;;;;;;;;;4966426;28;20191;-63
2021/10/26 06:57:20;;;;;;;13.43;8.90;;;;;;;;;;4967741;28;20189;-66
2021/10/26 06:59:53;;;;;;;11.47;9.10;;;;;;;;;;4971455;28;20192;-66
2021/10/26 07:02:22;;;;;;;11.40;9.67;;;;;;;;;;4959941;28;20291;-65
2021/10/26 07:04:58;;;;;;;12.17;9.80;;;;;;;;;;4956398;28;20173;-65
2021/10/26 07:07:24;;;;;;;10.90;8.83;;;;;;;;;;4970417;28;20658;-65
2021/10/26 07:09:50;;;;;;;11.27;8.47;;;;;;;;;;4971521;28;20657;-65
2021/10/26 07:12:17;;;;;;;11.17;9.30;;;;;;;;;;4955243;28;20202;-65
2021/10/26 07:14:43;;;;;;;9.30;8.33;;;;;;;;;;4955794;28;20192;-65
2021/10/26 07:17:12;;;;;;;9.13;8.17;;;;;;;;;;4971599;28;20263;-65
2021/10/26 07:19:41;;;;;;;12.33;8.30;;;;;;;;;;4956910;28;20195;-65
2021/10/26 07:22:07;;;;;;;10.97;9.23;;;;;;;;;;4953911;28;20203;-66
2021/10/26 07:24:42;;;;;;;11.77;9.77;;;;;;;;;;4966489;28;20183;-65
2021/10/26 07:27:09;;;;;;;10.80;8.77;;;;;;;;;;4971775;28;20183;-65
2021/10/26 07:29:35;;;;;;;14.73;9.90;;;;;;;;;;4954519;28;20180;-65
2021/10/26 07:32:03;;;;;;;12.03;10.50;;;;;;;;;;4968658;28;20294;-65
2021/10/26 07:34:39;;;;;;;10.73;9.37;;;;;;;;;;4948817;28;20223;-65
2021/10/26 07:37:05;;;;;;;18.93;12.90;;;;;;;;;;4948421;28;20188;-68
2021/10/26 07:39:33;;;;;;;16.77;13.53;;;;;;;;;;4968821;28;20191;-67
2021/10/26 07:42:00;;;;;;;39.17;14.40;;;;;;;;;;4946710;28;20199;-64
2021/10/26 07:44:28;;;;;;;44.37;16.17;;;;;;;;;;4940311;28;20184;-65
2021/10/26 07:46:56;;;;;;;99.05;21.20;;;;;;;;;;4946491;28;20522;-65
2021/10/26 07:49:22;;;;;;;90.73;19.63;;;;;;;;;;4942920;28;20176;-64
2021/10/26 07:51:49;;;;;;;66.20;16.60;;;;;;;;;;4950426;28;20191;-65
2021/10/26 07:54:15;;;;;;;44.27;14.23;;;;;;;;;;4953359;28;20271;-66
2021/10/26 07:56:41;;;;;;;37.13;15.00;;;;;;;;;;4951941;28;20176;-65
2021/10/26 07:59:16;;;;;;;52.97;15.63;;;;;;;;;;4962130;28;20263;-64
2021/10/26 08:01:44;;;;;;;39.33;12.93;;;;;;;;;;4942836;28;20306;-65
2021/10/26 08:04:11;;;;;;;33.67;13.67;;;;;;;;;;4964458;28;20180;-64
2021/10/26 08:06:43;;;;;;;32.20;12.93;;;;;;;;;;4949997;28;20583;-64
2021/10/26 08:09:16;;;;;;;24.13;12.17;;;;;;;;;;4940402;28;20180;-64
2021/10/26 08:11:43;;;;;;;32.23;13.30;;;;;;;;;;4970903;28;20188;-64
2021/10/26 08:14:09;;;;;;;31.70;14.00;;;;;;;;;;4949937;28;20207;-64
2021/10/26 08:16:35;;;;;;;21.23;11.97;;;;;;;;;;4945627;28;20627;-64
2021/10/26 08:19:17;;;;;;;25.47;12.27;;;;;;;;;;4950886;28;20251;-64
2021/10/26 08:21:55;;;;;;;18.70;12.37;;;;;;;;;;4953007;28;20222;-64
2021/10/26 08:24:23;;;;;;;28.33;11.03;;;;;;;;;;4980377;23;20234;-81
2021/10/26 08:27:00;;;;;;;22.47;10.93;;;;;;;;;;4983958;28;20217;-82
2021/10/26 08:29:52;;;;;;;20.00;11.93;;;;;;;;;;4991840;28;20163;-81
2021/10/26 08:32:47;;;;;;;20.87;10.50;;;;;;;;;;4979615;28;20298;-81
2021/10/26 08:35:24;;;;;;;22.20;11.87;;;;;;;;;;4961237;28;20202;-82
2021/10/26 08:37:52;;;;;;;19.23;11.17;;;;;;;;;;4959478;28;20195;-82
2021/10/26 08:40:19;;;;;;;16.53;10.37;;;;;;;;;;4980689;28;20183;-83
2021/10/26 08:42:48;;;;;;;23.17;10.47;;;;;;;;;;4959534;28;20185;-82
2021/10/26 08:45:18;;;;;;;18.60;10.07;;;;;;;;;;4962184;28;20172;-81
2021/10/26 08:47:45;;;;;;;15.37;10.23;;;;;;;;;;4962698;28;20184;-81
2021/10/26 08:50:11;;;;;;;18.93;10.60;;;;;;;;;;4960835;28;20271;-82
2021/10/26 08:52:38;;;;;;;18.50;10.40;;;;;;;;;;4960872;28;20206;-82
2021/10/26 08:55:08;;;;;;;14.17;10.33;;;;;;;;;;4963240;28;20384;-81
2021/10/26 08:57:34;;;;;;;16.47;10.50;;;;;;;;;;4961629;28;20542;-82
2021/10/26 09:00:10;;;;;;;18.57;10.87;;;;;;;;;;4977969;28;20199;-82
2021/10/26 09:02:40;;;;;;;12.57;9.27;;;;;;;;;;4953923;28;20183;-82
2021/10/26 09:05:08;;;;;;;12.93;10.13;;;;;;;;;;4971240;28;20216;-83
2021/10/26 09:07:36;;;;;;;14.37;9.63;;;;;;;;;;4962330;28;20327;-83
2021/10/26 09:10:09;;;;;;;17.13;10.13;;;;;;;;;;4979241;28;20230;-81
2021/10/26 09:17:50;;;;;;;11.73;8.97;;;;;;;;;;4979913;28;20195;-82
2021/10/26 09:20:23;;;;;;;13.77;9.83;;;;;;;;;;4958737;28;20190;-83
2021/10/26 09:22:55;;;;;;;10.47;8.83;;;;;;;;;;4963348;28;20266;-81
2021/10/26 09:25:31;;;;;;;13.33;9.77;;;;;;;;;;4963105;28;20188;-82
2021/10/26 09:28:09;;;;;;;12.63;8.63;;;;;;;;;;4979250;28;20400;-82
2021/10/26 09:30:35;;;;;;;12.37;9.00;;;;;;;;;;4960971;28;20294;-82
2021/10/26 09:33:02;;;;;;;13.10;9.90;;;;;;;;;;4960968;28;20199;-82
2021/10/26 09:35:28;;;;;;;14.00;8.47;;;;;;;;;;4962005;28;20188;-82
2021/10/26 09:37:57;;;;;;;11.27;8.23;;;;;;;;;;4978328;28;20322;-82
2021/10/26 09:40:36;;;;;;;11.00;7.97;;;;;;;;;;4972167;28;20187;-82
2021/10/26 09:43:05;;;;;;;13.20;7.37;;;;;;;;;;4958215;28;20187;-81
2021/10/26 09:45:32;;;;;;;11.83;7.37;;;;;;;;;;4956614;28;20171;-82
2021/10/26 09:48:15;;;;;;;12.10;7.10;;;;;;;;;;4951623;29;20784;-82
2021/10/26 09:50:42;;;;;;;8.70;6.60;;;;;;;;;;4979387;28;20234;-81
2021/10/26 09:53:09;;;;;;;10.73;6.47;;;;;;;;;;4961030;28;20656;-82
2021/10/26 09:55:41;;;;;;;9.83;5.93;;;;;;;;;;4960463;28;20667;-82
2021/10/26 09:58:15;;;;;;;9.20;6.57;;;;;;;;;;4960781;28;20198;-82
2021/10/26 10:00:42;;;;;;;8.17;5.73;;;;;;;;;;4963942;28;20673;-82
2021/10/26 10:03:11;;;;;;;9.97;6.90;;;;;;;;;;4979603;28;20176;-83
2021/10/26 10:05:37;;;;;;;9.57;6.10;;;;;;;;;;4969442;28;20191;-83
2021/10/26 10:08:20;;;;;;;8.23;5.53;;;;;;;;;;4962117;28;20192;-83
2021/10/26 10:10:47;;;;;;;7.37;5.33;;;;;;;;;;4960189;28;20263;-83
2021/10/26 10:13:13;;;;;;;8.03;5.57;;;;;;;;;;4962586;28;20192;-83
2021/10/26 10:15:42;;;;;;;8.30;4.97;;;;;;;;;;4955244;28;20180;-82
2021/10/26 10:18:09;;;;;;;7.63;5.37;;;;;;;;;;4958166;28;20264;-83
2021/10/26 10:20:35;;;;;;;10.77;5.50;;;;;;;;;;4962057;28;20317;-82
2021/10/26 10:23:02;;;;;;;9.17;5.60;;;;;;;;;;4961457;28;20191;-83
2021/10/26 10:25:29;;;;;;;8.43;4.93;;;;;;;;;;4958474;28;20656;-83
2021/10/26 10:27:56;;;;;;;8.10;5.40;;;;;;;;;;4967376;28;20599;-82
2021/10/26 10:30:22;;;;;;;7.77;4.83;;;;;;;;;;4963719;28;20207;-82
2021/10/26 10:32:48;;;;;;;7.77;5.50;;;;;;;;;;4960463;28;20187;-82
2021/10/26 10:35:18;;;;;;;5.17;4.63;;;;;;;;;;4965840;28;20175;-82
2021/10/26 10:37:47;;;;;;;7.63;5.30;;;;;;;;;;4960270;28;20434;-82
2021/10/26 10:40:14;;;;;;;5.60;4.33;;;;;;;;;;4960326;28;20187;-81
2021/10/26 10:42:47;;;;;;;11.23;5.07;;;;;;;;;;4961249;28;20172;-82
2021/10/26 10:45:25;;;;;;;6.17;5.00;;;;;;;;;;4960068;28;20179;-82
2021/10/26 10:47:51;;;;;;;6.00;4.60;;;;;;;;;;4960412;28;20183;-81
2021/10/26 10:50:20;;;;;;;6.50;4.77;;;;;;;;;;4960670;28;20183;-82
2021/10/26 10:53:02;;;;;;;6.80;4.73;;;;;;;;;;4960714;28;20231;-81
2021/10/26 10:55:28;;;;;;;7.27;4.67;;;;;;;;;;4958743;28;20176;-82
2021/10/26 10:57:54;;;;;;;7.30;5.27;;;;;;;;;;4958755;28;20183;-80
2021/10/26 11:00:22;;;;;;;5.53;4.57;;;;;;;;;;4972883;23;20213;-63
2021/10/26 11:02:50;;;;;;;7.23;5.23;;;;;;;;;;4973448;28;20167;-64
2021/10/26 11:05:38;;;;;;;5.73;4.10;;;;;;;;;;4971233;28;20186;-63
2021/10/26 11:08:08;;;;;;;6.93;4.77;;;;;;;;;;4983619;28;20238;-62
2021/10/26 11:10:50;;;;;;;4.57;4.17;;;;;;;;;;4975346;28;20619;-62
2021/10/26 11:13:24;;;;;;;8.27;4.57;;;;;;;;;;4952196;28;20552;-63
2021/10/26 11:15:51;;;;;;;6.43;4.33;;;;;;;;;;4983317;28;20669;-62
2021/10/26 11:18:50;;;;;;;7.07;4.37;;;;;;;;;;4971579;28;20770;-63
2021/10/26 11:21:23;;;;;;;4.27;3.87;;;;;;;;;;4944836;28;20230;-62
2021/10/26 11:23:50;;;;;;;6.43;4.17;;;;;;;;;;4977824;28;20168;-62
2021/10/26 11:26:18;;;;;;;7.67;4.10;;;;;;;;;;4961150;28;20210;-62
2021/10/26 11:29:03;;;;;;;6.77;5.17;;;;;;;;;;4988930;28;20172;-62
2021/10/26 11:31:31;;;;;;;7.33;4.13;;;;;;;;;;4984782;28;20261;-61
2021/10/26 11:34:02;;;;;;;5.80;3.73;;;;;;;;;;4996738;28;20278;-64
2021/10/26 11:36:33;;;;;;;17.73;4.83;;;;;;;;;;4997099;28;20614;-63
2021/10/26 11:39:01;;;;;;;5.70;4.30;;;;;;;;;;4974562;28;20189;-62
2021/10/26 11:41:31;;;;;;;5.30;3.83;;;;;;;;;;4973319;28;20203;-63
2021/10/26 11:44:02;;;;;;;9.30;4.13;;;;;;;;;;4978700;28;21273;-62
2021/10/26 11:46:30;;;;;;;4.47;3.80;;;;;;;;;;4974306;28;20171;-63
2021/10/26 11:48:59;;;;;;;4.37;3.43;;;;;;;;;;4987613;28;20225;-62
2021/10/26 11:51:26;;;;;;;5.40;3.80;;;;;;;;;;4989506;28;20212;-62
2021/10/26 11:54:17;;;;;;;4.47;3.70;;;;;;;;;;4989817;28;20184;-62
2021/10/26 11:56:47;;;;;;;4.87;3.07;;;;;;;;;;4969498;28;20535;-62
2021/10/26 11:59:14;;;;;;;5.27;3.27;;;;;;;;;;4972814;28;20990;-63
2021/10/26 12:01:46;;;;;;;6.23;3.30;;;;;;;;;;4990845;28;20215;-63
2021/10/26 12:04:26;;;;;;;5.67;3.73;;;;;;;;;;4969569;28;20179;-61
2021/10/26 12:06:58;;;;;;;6.80;3.57;;;;;;;;;;4973519;28;20214;-62
2021/10/26 12:09:25;;;;;;;5.73;3.40;;;;;;;;;;4973642;28;20175;-61
2021/10/26 12:11:53;;;;;;;4.30;3.03;;;;;;;;;;4956945;28;20180;-61
2021/10/26 12:14:19;;;;;;;5.50;3.03;;;;;;;;;;4970521;28;20646;-62
2021/10/26 12:17:04;;;;;;;3.37;2.70;;;;;;;;;;4994253;28;20179;-62
2021/10/26 12:19:30;;;;;;;4.47;3.20;;;;;;;;;;4979279;28;20637;-62
2021/10/26 12:21:57;;;;;;;4.23;3.10;;;;;;;;;;4973265;28;20195;-62
2021/10/26 12:24:27;;;;;;;6.53;4.40;;;;;;;;;;4966270;28;20646;-62
2021/10/26 12:27:05;;;;;;;4.77;3.20;;;;;;;;;;4984975;28;20195;-62
2021/10/26 12:29:32;;;;;;;6.30;3.30;;;;;;;;;;4961380;28;20183;-62
2021/10/26 12:31:59;;;;;;;3.87;3.30;;;;;;;;;;4989222;28;20187;-62
2021/10/26 12:34:26;;;;;;;5.00;2.63;;;;;;;;;;4987078;28;20171;-62
2021/10/26 12:36:53;;;;;;;5.20;2.83;;;;;;;;;;4989727;28;20301;-64
2021/10/26 12:39:28;;;;;;;6.73;2.73;;;;;;;;;;4989878;28;20183;-62
2021/10/26 12:41:54;;;;;;;6.77;3.13;;;;;;;;;;4960175;28;20226;-62
2021/10/26 12:44:23;;;;;;;5.30;3.17;;;;;;;;;;4990808;28;20621;-62
2021/10/26 12:47:02;;;;;;;4.83;3.40;;;;;;;;;;4980842;28;20262;-62
2021/10/26 12:49:36;;;;;;;3.50;2.90;;;;;;;;;;4964597;28;20218;-64
2021/10/26 12:52:11;;;;;;;9.43;3.33;;;;;;;;;;4995995;28;20206;-62
2021/10/26 12:54:37;;;;;;;7.43;3.10;;;;;;;;;;4990807;28;20167;-62
2021/10/26 12:57:03;;;;;;;6.33;3.20;;;;;;;;;;4972695;28;20214;-61
2021/10/26 12:59:31;;;;;;;4.00;2.70;;;;;;;;;;4984982;28;20184;-61
2021/10/26 13:02:01;;;;;;;4.37;2.53;;;;;;;;;;4983982;28;20823;-63
2021/10/26 13:04:28;;;;;;;4.97;3.40;;;;;;;;;;4971909;28;20858;-61
2021/10/26 13:07:07;;;;;;;4.97;2.90;;;;;;;;;;4972214;28;20178;-63
2021/10/26 13:09:34;;;;;;;4.70;2.60;;;;;;;;;;4982530;28;20178;-63
2021/10/26 13:12:06;;;;;;;5.07;3.17;;;;;;;;;;4991944;28;20183;-64
2021/10/26 13:14:43;;;;;;;4.03;2.53;;;;;;;;;;4962967;28;20274;-62
2021/10/26 13:17:30;;;;;;;6.30;3.10;;;;;;;;;;4983886;28;20273;-62
2021/10/26 13:20:13;;;;;;;5.23;3.13;;;;;;;;;;4991042;28;20182;-63
2021/10/26 13:22:39;;;;;;;3.67;2.90;;;;;;;;;;4989680;28;20209;-63
2021/10/26 13:25:06;;;;;;;2.87;2.57;;;;;;;;;;4987456;28;20210;-62
2021/10/26 13:27:32;;;;;;;3.97;2.47;;;;;;;;;;4971535;28;20187;-63
2021/10/26 13:29:59;;;;;;;4.93;3.13;;;;;;;;;;4989152;28;20187;-63
2021/10/26 13:32:25;;;;;;;4.63;2.73;;;;;;;;;;5005025;28;20637;-62
2021/10/26 13:34:52;;;;;;;5.23;2.73;;;;;;;;;;4992758;28;20195;-62
2021/10/26 13:37:19;;;;;;;4.17;3.47;;;;;;;;;;4988617;28;20801;-62
2021/10/26 13:39:46;;;;;;;3.70;2.60;;;;;;;;;;4987411;28;20186;-63
2021/10/26 13:42:12;;;;;;;3.87;2.60;;;;;;;;;;4988528;28;20269;-64
2021/10/26 13:44:39;;;;;;;6.03;2.53;;;;;;;;;;4988957;28;20622;-62
2021/10/26 13:47:05;;;;;;;3.73;2.40;;;;;;;;;;4981804;28;20186;-61
2021/10/26 13:49:31;;;;;;;5.20;2.70;;;;;;;;;;4986735;28;20194;-62
2021/10/26 13:51:58;;;;;;;4.23;2.53;;;;;;;;;;4969857;28;20638;-62
2021/10/26 13:54:25;;;;;;;4.73;2.73;;;;;;;;;;4980511;28;20542;-62
2021/10/26 13:56:52;;;;;;;4.60;2.40;;;;;;;;;;4988769;28;20184;-62
2021/10/26 13:59:19;;;;;;;7.53;2.63;;;;;;;;;;4981204;28;20653;-61
2021/10/26 14:01:46;;;;;;;4.47;2.70;;;;;;;;;;4970476;28;20226;-62
2021/10/26 14:04:13;;;;;;;3.40;2.53;;;;;;;;;;4970527;28;20688;-61
2021/10/26 14:06:40;;;;;;;5.23;2.27;;;;;;;;;;4971082;28;20191;-61
2021/10/26 14:09:08;;;;;;;4.17;2.50;;;;;;;;;;4977333;28;20190;-61
2021/10/26 14:11:35;;;;;;;2.90;1.93;;;;;;;;;;4970661;28;20402;-63
2021/10/26 14:14:02;;;;;;;4.47;2.80;;;;;;;;;;4987578;28;20269;-61
2021/10/26 14:16:28;;;;;;;5.03;2.83;;;;;;;;;;4987610;28;20664;-62
2021/10/26 14:18:58;;;;;;;2.10;1.90;;;;;;;;;;4972224;28;20198;-62
2021/10/26 14:21:24;;;;;;;2.50;2.30;;;;;;;;;;4986130;28;20727;-62
2021/10/26 14:23:51;;;;;;;5.30;2.40;;;;;;;;;;4986881;28;20186;-62
2021/10/26 14:26:17;;;;;;;3.93;2.33;;;;;;;;;;4987275;28;20207;-60
2021/10/26 14:28:43;;;;;;;7.07;2.80;;;;;;;;;;4988414;28;20245;-62
2021/10/26 14:31:09;;;;;;;5.17;2.30;;;;;;;;;;4960794;28;20557;-61
2021/10/26 14:33:38;;;;;;;4.93;2.10;;;;;;;;;;4985938;28;20215;-61
2021/10/26 14:36:09;;;;;;;5.37;2.20;;;;;;;;;;4960483;28;20198;-61
2021/10/26 14:41:35;;;;;;;4.17;2.40;;;;;;;;;;4986053;28;20301;-62
2021/10/26 14:55:09;;;;;;;4.30;2.40;;;;;;;;;;4984235;28;20278;-62
2021/10/26 14:57:35;;;;;;;3.30;2.40;;;;;;;;;;4985304;28;20641;-62
2021/10/26 15:00:02;;;;;;;4.63;2.30;;;;;;;;;;4970214;28;20198;-62
2021/10/26 15:02:31;;;;;;;5.73;3.20;;;;;;;;;;4983653;28;20223;-60
2021/10/26 15:04:58;;;;;;;4.20;2.20;;;;;;;;;;4986051;28;20603;-62
2021/10/26 15:07:27;;;;;;;3.63;2.33;;;;;;;;;;4968422;28;20551;-61
2021/10/26 15:09:57;;;;;;;4.63;2.60;;;;;;;;;;4969492;28;20701;-60
2021/10/26 15:12:38;;;;;;;5.77;2.20;;;;;;;;;;4990184;28;20194;-61